Time;durP1;ratioP1;P1;durP2;ratioP2;P2;SDS_P1;SDS_P2;PMS_P1;PMS_P2;Temp;Humidity;BMP_temperature;BMP_pressure;BME280_temperature;BME280_humidity;BME280_pressure;Samples;Min_cycle;Max_cycle;Signal;HPM_P1;HPM_P2
2021/03/18 00:01:53;;;;;;;3.23;2.57;;;;;;;0.13;87.04;95156.38;1696084;83;21144;-65
2021/03/18 00:04:21;;;;;;;7.10;4.10;;;;;;;0.10;86.89;95156.73;1695683;85;21144;-65
2021/03/18 00:06:50;;;;;;;8.20;4.93;;;;;;;0.07;86.88;95158.00;1695704;85;21177;-65
2021/03/18 00:09:20;;;;;;;8.93;5.40;;;;;;;0.07;86.74;95160.16;1695968;82;21173;-65
2021/03/18 00:11:51;;;;;;;9.13;6.10;;;;;;;0.04;86.58;95161.85;1695854;85;21173;-65
2021/03/18 00:14:24;;;;;;;9.27;6.03;;;;;;;0.03;86.65;95159.69;1695980;85;21130;-65
2021/03/18 00:16:52;;;;;;;10.65;6.97;;;;;;;-0.01;86.73;95163.08;1695868;85;21615;-65
2021/03/18 00:19:21;;;;;;;11.00;7.03;;;;;;;-0.02;86.84;95162.20;1695655;85;21177;-65
2021/03/18 00:21:49;;;;;;;12.57;7.00;;;;;;;-0.03;86.75;95164.34;1695744;85;21591;-64
2021/03/18 00:24:18;;;;;;;10.80;6.93;;;;;;;-0.03;86.68;95163.47;1695919;83;21588;-65
2021/03/18 00:26:45;;;;;;;14.43;8.17;;;;;;;-0.05;86.58;95161.27;1696022;84;21130;-65
2021/03/18 00:29:13;;;;;;;10.83;6.60;;;;;;;-0.05;86.73;95162.17;1696000;84;21185;-65
2021/03/18 00:31:43;;;;;;;14.30;8.20;;;;;;;-0.07;86.62;95159.11;1693752;85;21153;-65
2021/03/18 00:34:11;;;;;;;14.03;8.67;;;;;;;-0.08;86.83;95159.94;1695975;84;21607;-65
2021/03/18 00:36:38;;;;;;;11.53;6.43;;;;;;;-0.09;86.79;95157.77;1695935;84;21157;-65
2021/03/18 00:39:09;;;;;;;14.17;7.60;;;;;;;-0.06;86.73;95164.30;1696142;85;21170;-65
2021/03/18 00:41:36;;;;;;;11.27;7.17;;;;;;;-0.06;86.67;95159.54;1696233;84;21145;-65
2021/03/18 00:44:06;;;;;;;15.80;9.03;;;;;;;-0.07;86.61;95157.38;1696203;84;21145;-65
2021/03/18 00:46:34;;;;;;;15.33;8.87;;;;;;;-0.07;86.50;95157.81;1696260;85;21153;-65
2021/03/18 00:49:03;;;;;;;13.13;8.30;;;;;;;-0.13;86.65;95159.00;1668147;85;21590;-65
2021/03/18 00:51:32;;;;;;;17.60;9.67;;;;;;;-0.18;86.73;95160.65;1696181;84;21154;-65
2021/03/18 00:54:00;;;;;;;16.43;8.50;;;;;;;-0.19;86.75;95157.19;1696273;85;21149;-65
2021/03/18 00:56:27;;;;;;;19.67;10.17;;;;;;;-0.18;86.70;95161.52;1696005;85;21157;-65
2021/03/18 00:58:59;;;;;;;15.93;9.83;;;;;;;-0.20;86.73;95155.45;1696006;85;21141;-65
2021/03/18 01:01:28;;;;;;;16.20;10.40;;;;;;;-0.19;86.77;95155.89;1696544;84;21157;-65
2021/03/18 01:03:58;;;;;;;17.90;10.27;;;;;;;-0.17;86.67;95156.80;1696234;85;21177;-65
2021/03/18 01:06:29;;;;;;;16.00;9.23;;;;;;;-0.15;86.74;95150.31;1679467;85;21738;-65
2021/03/18 01:08:59;;;;;;;16.90;10.20;;;;;;;-0.11;86.49;95149.09;1679402;85;21158;-65
2021/03/18 01:11:33;;;;;;;15.67;8.90;;;;;;;-0.11;86.54;95151.69;1679290;85;21140;-65
2021/03/18 01:14:11;;;;;;;16.80;10.37;;;;;;;-0.14;86.35;95152.94;1679637;85;21143;-65
2021/03/18 01:16:49;;;;;;;14.50;8.63;;;;;;;-0.12;86.32;95151.69;1679268;85;21308;-65
2021/03/18 01:19:21;;;;;;;12.83;7.23;;;;;;;-0.12;86.16;95147.80;1679136;85;21142;-65
2021/03/18 01:21:53;;;;;;;15.90;8.37;;;;;;;-0.12;86.16;95148.66;1679550;85;21190;-65
2021/03/18 01:24:21;;;;;;;14.43;8.93;;;;;;;-0.18;86.10;95152.87;1679414;84;21595;-65
2021/03/18 01:26:49;;;;;;;18.93;10.40;;;;;;;-0.23;86.20;95151.50;1679456;85;21292;-65
2021/03/18 01:29:17;;;;;;;16.53;10.13;;;;;;;-0.27;86.20;95149.29;1679367;85;21142;-65
2021/03/18 01:31:46;;;;;;;16.27;9.80;;;;;;;-0.24;86.29;95147.17;1679218;85;21292;-65
2021/03/18 01:34:14;;;;;;;8.07;5.00;;;;;;;-0.26;86.27;95144.55;1679215;85;21300;-65
2021/03/18 01:36:42;;;;;;;17.10;9.27;;;;;;;-0.30;86.17;95140.61;1679608;85;21722;-65
2021/03/18 01:39:10;;;;;;;16.10;9.70;;;;;;;-0.31;86.23;95146.63;1679192;85;21150;-65
2021/03/18 01:41:38;;;;;;;20.03;11.13;;;;;;;-0.33;86.37;95140.53;1679413;85;21145;-64
2021/03/18 01:44:06;;;;;;;17.07;10.03;;;;;;;-0.30;86.24;95148.39;1679323;85;21292;-65
2021/03/18 01:46:35;;;;;;;17.80;9.60;;;;;;;-0.26;86.13;95143.25;1644278;87;21187;-65
2021/03/18 01:49:03;;;;;;;19.03;11.33;;;;;;;-0.22;86.03;95134.68;1644564;87;21304;-65
2021/03/18 01:51:32;;;;;;;20.13;11.03;;;;;;;-0.18;86.06;95147.25;1694564;85;21161;-65
2021/03/18 01:54:00;;;;;;;18.70;10.97;;;;;;;-0.18;85.87;95139.47;1694667;84;21157;-65
2021/03/18 01:56:28;;;;;;;5.50;3.70;;;;;;;-0.17;85.68;95138.64;1694464;85;21161;-65
2021/03/18 01:58:56;;;;;;;18.67;10.30;;;;;;;-0.18;85.50;95141.20;1694406;85;21157;-65
2021/03/18 02:01:25;;;;;;;17.13;9.30;;;;;;;-0.24;85.57;95138.09;1694664;84;21158;-65
2021/03/18 02:03:53;;;;;;;17.13;9.00;;;;;;;-0.25;85.66;95146.30;1694340;85;21612;-65
2021/03/18 02:06:22;;;;;;;17.50;10.37;;;;;;;-0.31;85.54;95141.00;1694278;85;21187;-65
2021/03/18 02:08:50;;;;;;;19.37;11.00;;;;;;;-0.32;85.75;95143.16;1694361;84;21173;-65
2021/03/18 02:11:17;;;;;;;18.07;10.70;;;;;;;-0.30;85.75;95141.91;1694412;85;21172;-65
2021/03/18 02:13:45;;;;;;;18.10;10.00;;;;;;;-0.28;85.73;95150.55;1694398;85;21556;-65
2021/03/18 02:16:14;;;;;;;17.53;10.03;;;;;;;-0.32;85.57;95148.34;1694754;84;21140;-65
2021/03/18 02:19:22;;;;;;;20.37;11.43;;;;;;;-0.32;85.73;95151.38;1694359;84;21181;-65
2021/03/18 02:22:29;;;;;;;15.17;8.87;;;;;;;-0.28;85.57;95145.37;1694338;85;21150;-65
2021/03/18 02:25:02;;;;;;;18.50;9.17;;;;;;;-0.29;85.28;95150.98;1703216;83;21140;-64
2021/03/18 02:28:12;;;;;;;18.00;10.28;;;;;;;-0.39;85.21;95140.02;1705901;83;21148;-64
2021/03/18 02:30:57;;;;;;;12.40;7.17;;;;;;;-0.39;85.21;95140.02;1704608;84;21145;-64
2021/03/18 02:33:46;;;;;;;19.27;11.27;;;;;;;-0.33;85.47;95150.91;1706011;84;21153;-64
2021/03/18 02:36:21;;;;;;;18.40;11.07;;;;;;;-0.31;85.32;95151.38;1705835;84;21128;-64
2021/03/18 02:39:05;;;;;;;22.40;12.40;;;;;;;-0.34;85.53;95162.13;1705915;84;21176;-64
2021/03/18 02:41:38;;;;;;;19.77;11.73;;;;;;;-0.27;85.56;95163.98;1705971;84;21161;-64
2021/03/18 02:44:20;;;;;;;19.92;11.53;;;;;;;-0.23;85.51;95165.36;1704866;84;21144;-64
2021/03/18 02:47:04;;;;;;;21.90;11.53;;;;;;;-0.22;85.74;95164.92;1705889;83;21141;-64
2021/03/18 02:49:40;;;;;;;17.73;11.10;;;;;;;-0.19;85.52;95155.89;1705670;84;21153;-64
2021/03/18 02:52:15;;;;;;;13.87;7.57;;;;;;;-0.20;85.29;95167.13;1705842;84;21152;-64
2021/03/18 02:54:45;;;;;;;14.70;8.60;;;;;;;-0.20;85.15;95162.34;1706070;84;21149;-65
2021/03/18 02:57:16;;;;;;;17.83;10.03;;;;;;;-0.24;85.28;95163.59;1705824;84;21563;-64
2021/03/18 02:59:46;;;;;;;18.30;10.20;;;;;;;-0.18;85.41;95165.41;1706273;83;21137;-64
2021/03/18 03:02:19;;;;;;;18.80;10.30;;;;;;;-0.16;85.34;95160.25;1705863;84;21165;-64
2021/03/18 03:04:49;;;;;;;16.32;10.60;;;;;;;-0.15;85.12;95160.29;1706078;84;21587;-64
2021/03/18 03:07:19;;;;;;;15.07;8.37;;;;;;;-0.14;85.07;95162.02;1664749;86;21134;-64
2021/03/18 03:09:48;;;;;;;16.17;8.57;;;;;;;-0.16;84.98;95165.44;1695941;84;21204;-64
2021/03/18 03:12:20;;;;;;;7.70;4.40;;;;;;;-0.27;84.79;95163.98;1695895;85;21149;-64
2021/03/18 03:14:49;;;;;;;20.23;11.30;;;;;;;-0.31;84.74;95155.27;1695998;85;21569;-64
2021/03/18 03:17:20;;;;;;;13.23;7.53;;;;;;;-0.32;84.96;95167.80;1695957;83;21596;-64
2021/03/18 03:19:51;;;;;;;17.87;9.97;;;;;;;-0.34;85.17;95165.59;1695705;85;21188;-64
2021/03/18 03:22:21;;;;;;;17.00;10.17;;;;;;;-0.33;85.31;95162.17;1696033;85;21172;-64
2021/03/18 03:24:51;;;;;;;18.33;10.17;;;;;;;-0.27;85.38;95160.09;1695742;83;21197;-64
2021/03/18 03:27:20;;;;;;;13.57;9.03;;;;;;;-0.23;85.28;95169.25;1696229;84;21173;-64
2021/03/18 03:29:49;;;;;;;17.60;10.40;;;;;;;-0.24;85.03;95166.61;1695997;85;21145;-65
2021/03/18 03:32:17;;;;;;;15.70;8.90;;;;;;;-0.20;85.28;95172.70;1695993;85;21161;-64
2021/03/18 03:34:45;;;;;;;18.00;10.23;;;;;;;-0.18;85.26;95167.13;1695913;85;21157;-64
2021/03/18 03:37:13;;;;;;;13.17;7.87;;;;;;;-0.19;85.07;95170.58;1695954;84;21133;-64
2021/03/18 03:39:41;;;;;;;15.20;9.63;;;;;;;-0.26;85.10;95176.08;1696027;84;21189;-64
2021/03/18 03:42:11;;;;;;;9.77;5.60;;;;;;;-0.24;85.18;95176.98;1696239;85;21552;-64
2021/03/18 03:44:41;;;;;;;11.37;6.77;;;;;;;-0.27;85.28;95173.92;1695982;85;21165;-64
2021/03/18 03:47:10;;;;;;;13.17;7.63;;;;;;;-0.26;85.27;95173.48;1696217;85;21130;-64
2021/03/18 03:49:39;;;;;;;15.33;8.73;;;;;;;-0.29;85.26;95177.34;1696204;85;21588;-64
2021/03/18 03:52:44;;;;;;;16.73;9.50;;;;;;;-0.27;85.23;95176.52;1696065;85;21157;-64
2021/03/18 03:55:23;;;;;;;10.57;6.93;;;;;;;-0.26;85.41;95183.86;1673872;85;21588;-64
2021/03/18 03:57:57;;;;;;;20.47;10.40;;;;;;;-0.32;85.42;95190.26;1696194;85;21149;-64
2021/03/18 04:00:28;;;;;;;17.73;10.97;;;;;;;-0.33;85.70;95184.60;1679224;85;21162;-64
2021/03/18 04:03:00;;;;;;;18.97;10.63;;;;;;;-0.27;85.66;95186.88;1662832;86;21150;-64
2021/03/18 04:05:29;;;;;;;22.07;11.53;;;;;;;-0.27;85.54;95187.31;1662810;86;21130;-64
2021/03/18 04:08:04;;;;;;;17.30;10.90;;;;;;;-0.25;85.72;95183.03;1634535;88;21295;-64
2021/03/18 04:10:34;;;;;;;14.97;9.07;;;;;;;-0.19;85.63;95184.84;1679603;85;21154;-64
2021/03/18 04:13:02;;;;;;;15.77;8.80;;;;;;;-0.22;85.42;95180.05;1679350;85;21316;-64
2021/03/18 04:15:34;;;;;;;20.87;10.60;;;;;;;-0.26;85.32;95178.25;1679231;85;21182;-64
2021/03/18 04:18:04;;;;;;;23.47;12.43;;;;;;;-0.24;85.48;95186.06;1679239;85;21161;-64
2021/03/18 04:20:36;;;;;;;14.83;8.93;;;;;;;-0.20;85.60;95185.27;1694087;85;21162;-64
2021/03/18 04:23:08;;;;;;;18.10;10.97;;;;;;;-0.20;85.28;95184.37;1694498;85;21149;-64
2021/03/18 04:25:37;;;;;;;22.30;12.13;;;;;;;-0.29;85.42;95186.41;1703555;83;21137;-64
2021/03/18 04:28:10;;;;;;;19.07;10.90;;;;;;;-0.26;85.61;95183.86;1664634;86;21599;-64
2021/03/18 04:30:40;;;;;;;25.90;14.15;;;;;;;-0.24;85.71;95184.34;1696127;84;21556;-64
2021/03/18 04:33:10;;;;;;;23.07;12.93;;;;;;;-0.20;85.69;95185.67;1695881;85;21596;-64
2021/03/18 04:35:39;;;;;;;17.80;10.67;;;;;;;-0.24;85.44;95185.63;1695956;85;21568;-64
2021/03/18 04:38:07;;;;;;;7.83;4.87;;;;;;;-0.21;85.23;95192.58;1674442;85;21176;-64
2021/03/18 04:40:35;;;;;;;20.67;11.63;;;;;;;-0.25;85.16;95193.41;1696235;84;21152;-64
2021/03/18 04:43:03;;;;;;;23.00;12.43;;;;;;;-0.30;85.26;95198.50;1695917;85;21125;-64
2021/03/18 04:45:32;;;;;;;68.13;29.00;;;;;;;-0.30;85.60;95198.94;1695997;85;21183;-64
2021/03/18 04:48:02;;;;;;;21.30;12.03;;;;;;;-0.26;85.37;95196.39;1696000;85;21160;-64
2021/03/18 04:50:33;;;;;;;18.67;11.23;;;;;;;-0.19;85.39;95198.67;1696092;85;21138;-64
2021/03/18 04:53:00;;;;;;;18.43;11.00;;;;;;;-0.16;85.26;95193.96;1665065;86;21144;-64
2021/03/18 04:55:28;;;;;;;18.27;11.03;;;;;;;-0.12;85.30;95195.34;1696231;85;21543;-64
2021/03/18 04:58:04;;;;;;;19.93;11.83;;;;;;;-0.08;85.11;95192.35;1695898;83;21153;-64
2021/03/18 05:00:33;;;;;;;15.70;10.23;;;;;;;-0.10;85.10;95198.83;1695986;85;21157;-64
2021/03/18 05:03:08;;;;;;;15.47;8.43;;;;;;;-0.09;85.10;95195.38;1696229;83;21145;-64
2021/03/18 05:05:36;;;;;;;28.37;14.57;;;;;;;-0.11;85.16;95198.36;1696042;83;21169;-64
2021/03/18 05:08:06;;;;;;;18.77;10.90;;;;;;;-0.10;85.14;95203.12;1695983;83;21154;-65
2021/03/18 05:10:41;;;;;;;20.17;12.70;;;;;;;-0.09;85.04;95206.19;1695855;84;21145;-64
2021/03/18 05:13:12;;;;;;;19.43;11.47;;;;;;;-0.01;85.11;95204.14;1696313;85;21153;-65
2021/03/18 05:15:41;;;;;;;23.70;12.77;;;;;;;0.09;85.00;95194.78;1674414;85;21165;-65
2021/03/18 05:18:12;;;;;;;23.80;14.70;;;;;;;0.13;84.89;95203.50;1695994;83;21584;-65
2021/03/18 05:20:43;;;;;;;22.13;12.83;;;;;;;0.19;84.65;95197.96;1695690;83;21182;-65
2021/03/18 05:23:13;;;;;;;17.73;11.33;;;;;;;0.25;84.39;95207.55;1695870;85;21149;-65
2021/03/18 05:25:42;;;;;;;17.40;9.80;;;;;;;0.30;84.00;95208.48;1696273;83;21177;-65
2021/03/18 05:28:10;;;;;;;23.87;14.03;;;;;;;0.26;83.99;95213.20;1696188;85;21618;-65
2021/03/18 05:30:38;;;;;;;22.30;13.07;;;;;;;0.30;84.25;95218.00;1696214;85;21157;-65
2021/03/18 05:33:06;;;;;;;22.70;12.20;;;;;;;0.36;83.88;95216.81;1696226;84;21620;-65
2021/03/18 05:35:40;;;;;;;15.03;9.47;;;;;;;0.42;84.01;95222.94;1696187;85;21564;-65
2021/03/18 05:38:10;;;;;;;20.13;11.23;;;;;;;0.46;83.69;95223.02;1727657;83;21151;-64
2021/03/18 05:40:40;;;;;;;17.37;9.17;;;;;;;0.46;83.78;95216.09;1714422;84;21153;-63
2021/03/18 05:43:09;;;;;;;25.57;14.93;;;;;;;0.53;83.53;95218.33;1729351;83;21116;-63
2021/03/18 05:45:37;;;;;;;38.73;19.90;;;;;;;0.49;83.52;95221.31;1714246;84;21287;-62
2021/03/18 05:48:07;;;;;;;103.87;43.93;;;;;;;0.49;83.41;95218.72;1729526;83;21599;-65
2021/03/18 05:50:37;;;;;;;81.30;35.33;;;;;;;0.49;83.60;95223.91;1714350;84;21154;-63
2021/03/18 05:53:06;;;;;;;19.67;12.03;;;;;;;0.56;83.40;95229.64;1729446;82;21125;-65
2021/03/18 05:55:36;;;;;;;19.87;10.87;;;;;;;0.59;83.12;95230.97;1689063;84;21129;-65
2021/03/18 05:58:04;;;;;;;15.80;9.53;;;;;;;0.63;82.74;95230.58;1730659;82;21117;-64
2021/03/18 06:00:34;;;;;;;18.13;11.33;;;;;;;0.63;82.41;95231.88;1730309;83;21168;-69
2021/03/18 06:03:02;;;;;;;18.13;11.40;;;;;;;0.70;82.46;95232.84;1715998;84;21563;-63
2021/03/18 06:05:30;;;;;;;16.70;10.83;;;;;;;0.82;82.39;95235.61;1730920;83;21147;-63
2021/03/18 06:07:58;;;;;;;12.50;8.37;;;;;;;0.91;82.16;95241.33;1730945;83;21120;-62
2021/03/18 06:10:27;;;;;;;16.87;10.37;;;;;;;0.89;81.28;95243.92;1715889;84;21136;-69
2021/03/18 06:12:58;;;;;;;12.80;8.30;;;;;;;0.96;81.59;95244.86;1730922;82;21148;-66
2021/03/18 06:15:26;;;;;;;15.53;9.50;;;;;;;0.96;81.06;95250.95;1731191;83;21097;-66
2021/03/18 06:17:55;;;;;;;15.10;9.20;;;;;;;1.02;81.42;95244.95;1731107;83;21140;-66
2021/03/18 06:20:30;;;;;;;13.00;8.50;;;;;;;1.04;81.41;95249.31;1715916;84;21164;-65
2021/03/18 06:23:01;;;;;;;13.83;8.57;;;;;;;1.12;81.15;95257.20;1730969;83;21149;-68
2021/03/18 06:25:33;;;;;;;13.43;7.97;;;;;;;1.12;81.08;95254.60;1708559;84;21157;-63
2021/03/18 06:28:26;;;;;;;12.60;8.00;;;;;;;1.14;80.44;95250.73;1739616;82;21569;-64
2021/03/18 06:31:08;;;;;;;11.25;7.60;;;;;;;1.18;80.15;95252.49;1739867;82;21146;-65
2021/03/18 06:33:43;;;;;;;15.03;9.03;;;;;;;1.28;80.01;95254.34;1739261;82;21138;-65
2021/03/18 06:36:34;;;;;;;12.30;8.13;;;;;;;1.26;79.59;95257.34;1736134;82;21137;-64
2021/03/18 06:39:09;;;;;;;12.00;8.23;;;;;;;1.28;79.61;95256.95;1738437;82;21154;-65
2021/03/18 06:41:44;;;;;;;14.18;8.83;;;;;;;1.32;79.38;95260.47;1739600;82;21548;-65
2021/03/18 06:44:28;;;;;;;12.53;7.60;;;;;;;1.40;79.47;95260.98;1739438;82;21154;-66
2021/03/18 06:47:08;;;;;;;12.70;8.80;;;;;;;1.37;78.70;95260.09;1739312;82;21556;-65
2021/03/18 06:49:37;;;;;;;12.77;8.63;;;;;;;1.50;78.91;95258.06;1739331;82;21158;-66
2021/03/18 06:52:12;;;;;;;9.27;5.83;;;;;;;1.60;78.57;95261.20;1739422;82;21164;-66
2021/03/18 06:54:43;;;;;;;10.93;7.00;;;;;;;1.50;78.00;95262.83;1739548;82;21161;-65
2021/03/18 06:57:18;;;;;;;8.83;5.37;;;;;;;1.50;78.10;95261.97;1739600;82;21142;-64
2021/03/18 06:59:46;;;;;;;15.20;9.47;;;;;;;1.54;77.68;95265.45;1739318;82;21157;-64
2021/03/18 07:02:17;;;;;;;9.70;5.73;;;;;;;1.57;78.33;95263.78;1739334;82;21142;-64
2021/03/18 07:04:50;;;;;;;13.97;8.60;;;;;;;1.70;78.32;95263.48;1739621;82;21133;-63
2021/03/18 07:07:20;;;;;;;13.00;8.93;;;;;;;1.85;78.06;95264.06;1739547;82;21102;-62
2021/03/18 07:09:52;;;;;;;18.90;8.43;;;;;;;2.04;77.76;95261.18;1739368;82;21134;-64
2021/03/18 07:12:30;;;;;;;12.70;7.17;;;;;;;2.13;76.59;95263.44;1739322;82;21130;-65
2021/03/18 07:15:03;;;;;;;12.07;7.30;;;;;;;2.19;75.76;95260.45;1739245;82;21137;-67
2021/03/18 07:17:35;;;;;;;15.27;8.23;;;;;;;2.27;75.87;95262.67;1739042;82;21134;-66
2021/03/18 07:20:18;;;;;;;12.30;6.53;;;;;;;2.38;75.93;95259.30;1714775;82;21122;-63
2021/03/18 07:22:52;;;;;;;11.87;8.60;;;;;;;2.46;75.37;95256.75;1738144;82;21145;-64
2021/03/18 07:25:26;;;;;;;10.40;7.70;;;;;;;2.51;75.11;95257.66;1739344;82;21186;-68
2021/03/18 07:28:01;;;;;;;10.80;6.97;;;;;;;2.55;74.29;95262.47;1739107;82;21121;-70
2021/03/18 07:30:35;;;;;;;11.10;7.83;;;;;;;2.59;74.13;95262.91;1746710;80;21136;-64
2021/03/18 07:33:04;;;;;;;11.97;8.33;;;;;;;2.65;74.38;95259.06;1754680;80;21116;-65
2021/03/18 07:35:35;;;;;;;10.37;7.07;;;;;;;2.60;74.16;95258.16;1754122;80;21145;-64
2021/03/18 07:38:04;;;;;;;12.67;7.50;;;;;;;2.69;74.39;95259.50;1753909;82;21134;-62
2021/03/18 07:40:33;;;;;;;12.77;8.30;;;;;;;2.65;73.68;95255.59;1754194;82;21154;-65
2021/03/18 07:43:01;;;;;;;11.90;8.33;;;;;;;2.63;73.49;95257.31;1753920;82;21611;-65
2021/03/18 07:45:30;;;;;;;10.87;8.07;;;;;;;2.66;73.34;95258.63;1754333;82;21156;-64
2021/03/18 07:48:00;;;;;;;11.20;7.73;;;;;;;2.59;73.69;95263.78;1754052;82;21137;-66
2021/03/18 07:50:32;;;;;;;10.23;6.90;;;;;;;2.65;73.38;95262.11;1754051;82;21595;-65
2021/03/18 07:53:01;;;;;;;13.00;8.50;;;;;;;2.64;73.20;95268.16;1753438;82;21600;-64
2021/03/18 07:55:33;;;;;;;12.00;7.70;;;;;;;2.84;73.34;95262.64;1754013;82;21181;-63
2021/03/18 07:58:01;;;;;;;15.77;10.33;;;;;;;2.87;72.86;95260.05;1753985;81;21141;-66
2021/03/18 08:00:32;;;;;;;12.00;7.47;;;;;;;2.91;72.53;95260.95;1774323;80;21476;-64
2021/03/18 08:03:25;;;;;;;12.90;8.27;;;;;;;2.93;72.77;95269.22;1785469;80;21162;-64
2021/03/18 08:05:54;;;;;;;12.25;7.08;;;;;;;2.88;71.86;95266.16;1758935;80;21571;-63
2021/03/18 08:08:36;;;;;;;10.97;6.23;;;;;;;2.73;71.93;95266.92;1769244;80;21563;-63
2021/03/18 08:11:11;;;;;;;11.47;7.27;;;;;;;2.81;72.69;95267.84;1779922;80;21139;-65
2021/03/18 08:13:41;;;;;;;9.30;6.43;;;;;;;2.86;72.64;95271.78;1742778;81;21174;-64
2021/03/18 08:16:26;;;;;;;8.87;6.33;;;;;;;2.97;72.47;95264.47;1742024;82;21182;-68
2021/03/18 08:19:09;;;;;;;9.43;7.90;;;;;;;3.01;71.94;95260.13;1824052;77;23652;-65
2021/03/18 08:21:43;;;;;;;30.23;15.63;;;;;;;3.04;72.46;95262.75;1828354;78;21172;-64
2021/03/18 08:24:17;;;;;;;8.43;5.80;;;;;;;3.10;72.20;95269.31;1779589;80;21148;-65
2021/03/18 08:27:05;;;;;;;10.23;7.20;;;;;;;3.02;71.61;95270.58;1774047;81;21136;-65
2021/03/18 08:29:50;;;;;;;11.30;6.50;;;;;;;3.14;71.68;95272.36;1743504;82;21177;-62
2021/03/18 08:32:30;;;;;;;;;;;;;;;3.20;71.81;95267.59;1776608;81;21144;-61
2021/03/18 08:35:09;;;;;;;8.87;6.40;;;;;;;3.23;71.32;95272.84;1753868;81;20126;-63
2021/03/18 08:37:42;;;;;;;11.37;7.47;;;;;;;3.21;71.26;95267.61;1741969;81;21590;-67
2021/03/18 08:40:30;;;;;;;9.83;7.07;;;;;;;3.22;70.74;95269.78;1745210;82;21577;-62
2021/03/18 08:43:06;;;;;;;7.47;5.73;;;;;;;3.21;71.21;95270.22;1745672;82;21277;-64
2021/03/18 08:45:38;;;;;;;9.87;6.53;;;;;;;3.08;71.41;95274.95;1745071;82;21610;-63
2021/03/18 08:48:14;;;;;;;11.23;7.30;;;;;;;3.16;71.67;95273.67;1745110;82;21119;-64
2021/03/18 08:50:48;;;;;;;11.80;8.30;;;;;;;3.08;71.92;95281.46;1745160;82;21155;-65
2021/03/18 08:53:30;;;;;;;10.30;6.47;;;;;;;3.25;71.70;95269.78;1744968;82;21183;-66
2021/03/18 08:55:58;;;;;;;10.20;7.30;;;;;;;3.28;71.42;95273.73;1745113;82;21143;-64
2021/03/18 08:58:25;;;;;;;11.67;7.70;;;;;;;3.31;71.28;95272.88;1716067;82;21147;-65
2021/03/18 09:00:54;;;;;;;8.43;5.07;;;;;;;3.33;71.23;95277.23;1745191;82;21137;-67
2021/03/18 09:03:22;;;;;;;12.47;7.10;;;;;;;3.22;70.78;95278.91;1745164;82;21169;-64
2021/03/18 09:05:57;;;;;;;11.40;6.60;;;;;;;3.29;71.12;95279.81;1745083;81;21174;-64
2021/03/18 09:08:35;;;;;;;6.83;4.73;;;;;;;3.24;71.23;95277.19;1744740;82;21133;-65
2021/03/18 09:10:58;;;;;;;9.30;6.25;;;;;;;3.12;71.01;95283.64;1773702;81;21137;-61
2021/03/18 09:13:26;;;;;;;9.27;5.43;;;;;;;3.12;71.58;95288.85;1775516;81;21139;-62
2021/03/18 09:15:57;;;;;;;8.70;6.40;;;;;;;3.08;71.68;95279.30;1757891;81;21147;-66
2021/03/18 09:18:33;;;;;;;7.97;5.77;;;;;;;3.08;70.95;95280.16;1738357;82;21563;-64
2021/03/18 09:21:09;;;;;;;8.43;5.43;;;;;;;2.96;71.75;95287.47;1734311;83;21710;-65
2021/03/18 09:23:41;;;;;;;8.80;6.53;;;;;;;3.23;71.78;95287.19;1709038;84;21221;-62
2021/03/18 09:26:12;;;;;;;7.57;5.33;;;;;;;3.23;71.12;95284.14;1734569;82;21545;-63
2021/03/18 09:28:47;;;;;;;9.90;7.00;;;;;;;3.25;70.99;95278.51;1734046;83;21288;-62
2021/03/18 09:31:23;;;;;;;9.27;6.30;;;;;;;3.40;70.89;95286.83;1734080;83;21141;-64
2021/03/18 09:33:54;;;;;;;8.77;5.80;;;;;;;3.27;70.37;95282.84;1734075;83;21109;-62
2021/03/18 09:36:30;;;;;;;12.37;8.48;;;;;;;3.36;70.90;95286.80;1733869;83;21145;-61
2021/03/18 09:39:14;;;;;;;10.70;7.60;;;;;;;3.52;70.45;95281.20;1707252;83;21169;-63
2021/03/18 09:41:46;;;;;;;8.00;5.57;;;;;;;3.62;69.96;95281.67;1708581;84;21150;-65
2021/03/18 09:44:20;;;;;;;9.30;6.70;;;;;;;3.56;69.75;95285.58;1742304;82;21140;-62
2021/03/18 09:47:01;;;;;;;9.53;6.70;;;;;;;3.77;70.09;95285.63;1708859;84;21150;-62
2021/03/18 09:49:41;;;;;;;9.63;6.50;;;;;;;3.98;69.60;95281.32;1729584;83;21164;-63
2021/03/18 09:52:12;;;;;;;9.67;5.00;;;;;;;4.13;68.29;95272.20;1733919;83;21182;-63
2021/03/18 09:54:40;;;;;;;8.47;6.27;;;;;;;4.29;68.80;95277.02;1733852;83;21097;-63
2021/03/18 09:57:10;;;;;;;8.03;6.43;;;;;;;4.41;68.04;95274.42;1733705;83;21165;-63
2021/03/18 09:59:39;;;;;;;8.23;6.27;;;;;;;4.38;67.31;95278.31;1733818;83;21157;-62
2021/03/18 10:02:08;;;;;;;10.17;6.67;;;;;;;4.32;66.72;95272.66;1734004;83;21536;-62
2021/03/18 10:04:40;;;;;;;9.90;6.10;;;;;;;4.28;67.39;95281.80;1733658;83;21168;-62
2021/03/18 10:07:10;;;;;;;7.90;5.70;;;;;;;4.28;67.28;95272.24;1733981;83;21125;-62
2021/03/18 10:09:45;;;;;;;9.53;7.13;;;;;;;4.31;67.13;95277.45;1733869;83;21631;-62
2021/03/18 10:12:20;;;;;;;10.63;6.53;;;;;;;4.45;67.49;95276.14;1733772;83;21166;-62
2021/03/18 10:15:04;;;;;;;9.37;6.77;;;;;;;4.27;67.40;95278.76;1708863;84;21561;-62
2021/03/18 10:17:40;;;;;;;9.13;6.33;;;;;;;4.07;67.34;95284.82;1714536;82;21169;-62
2021/03/18 10:20:22;;;;;;;7.47;5.37;;;;;;;3.99;67.87;95282.64;1726101;83;21137;-62
2021/03/18 10:23:02;;;;;;;11.90;7.47;;;;;;;3.94;68.81;95290.89;1749406;82;21153;-62
2021/03/18 10:25:34;;;;;;;14.23;9.03;;;;;;;3.99;69.70;95282.64;1704968;83;21127;-62
2021/03/18 10:28:10;;;;;;;14.00;8.23;;;;;;;4.08;69.64;95281.77;1787389;80;21097;-62
2021/03/18 10:30:48;;;;;;;12.17;7.33;;;;;;;4.08;69.84;95283.97;1787159;80;21579;-62
2021/03/18 10:33:21;;;;;;;9.70;7.03;;;;;;;4.19;68.69;95283.11;1756649;80;21128;-62
2021/03/18 10:35:59;;;;;;;10.60;8.00;;;;;;;4.36;68.73;95287.02;1787343;80;21129;-62
2021/03/18 10:38:38;;;;;;;9.70;6.93;;;;;;;4.42;67.84;95284.42;1786922;80;21161;-62
2021/03/18 10:41:09;;;;;;;7.07;5.40;;;;;;;4.36;67.26;95285.30;1786917;80;21109;-62
2021/03/18 10:43:46;;;;;;;10.53;7.90;;;;;;;4.36;67.29;95287.91;1756759;80;21171;-62
2021/03/18 10:46:18;;;;;;;9.07;6.23;;;;;;;4.38;68.11;95290.50;1786835;80;21140;-61
2021/03/18 10:48:49;;;;;;;9.13;6.47;;;;;;;4.45;67.67;95296.17;1786988;80;21117;-62
2021/03/18 10:51:20;;;;;;;9.53;7.37;;;;;;;4.47;67.61;95287.91;1786924;80;21136;-62
2021/03/18 10:53:49;;;;;;;10.40;7.63;;;;;;;4.53;68.79;95294.42;1786951;80;21566;-61
2021/03/18 10:56:25;;;;;;;9.63;7.33;;;;;;;4.61;68.29;95280.05;1787090;80;21544;-61
2021/03/18 10:58:54;;;;;;;9.50;7.00;;;;;;;4.58;68.11;95276.14;1786191;80;21635;-63
2021/03/18 11:01:29;;;;;;;9.70;7.50;;;;;;;4.42;67.82;95284.42;1786889;80;21137;-62
2021/03/18 11:04:05;;;;;;;8.73;6.80;;;;;;;4.51;68.14;95284.41;1786921;80;21259;-62
2021/03/18 11:06:36;;;;;;;8.50;6.03;;;;;;;4.65;68.00;95284.41;1787007;80;21164;-62
2021/03/18 11:09:04;;;;;;;8.30;6.40;;;;;;;4.74;68.34;95276.13;1785605;80;21109;-62
2021/03/18 11:11:33;;;;;;;7.77;6.80;;;;;;;4.70;67.48;95270.91;1787169;80;21136;-62
2021/03/18 11:14:10;;;;;;;6.10;5.50;;;;;;;4.77;66.71;95272.64;1786865;80;21516;-62
2021/03/18 11:16:40;;;;;;;8.27;5.80;;;;;;;4.74;66.70;95272.66;1787155;80;21125;-62
2021/03/18 11:19:13;;;;;;;9.23;6.07;;;;;;;4.77;66.27;95268.28;1790806;80;21188;-62
2021/03/18 11:21:44;;;;;;;9.87;6.87;;;;;;;4.87;67.57;95271.75;1792398;79;21547;-62
2021/03/18 11:24:16;;;;;;;10.27;6.90;;;;;;;4.86;67.42;95272.61;1792348;80;21148;-62
2021/03/18 11:27:02;;;;;;;10.05;7.97;;;;;;;5.05;66.78;95266.92;1792639;80;21157;-62
2021/03/18 11:29:35;;;;;;;9.43;6.97;;;;;;;5.08;66.17;95257.75;1792255;79;21125;-62
2021/03/18 11:32:06;;;;;;;9.50;7.30;;;;;;;5.06;66.22;95254.70;1792501;80;21154;-62
2021/03/18 11:34:37;;;;;;;9.77;6.20;;;;;;;4.98;66.42;95256.04;1792440;80;21554;-62
2021/03/18 11:37:09;;;;;;;8.43;6.87;;;;;;;4.94;67.69;95254.33;1792582;80;21558;-62
2021/03/18 11:39:38;;;;;;;10.23;7.50;;;;;;;5.08;66.67;95249.91;1792833;80;21128;-62
2021/03/18 11:42:07;;;;;;;8.13;6.70;;;;;;;5.13;66.97;95245.53;1792626;80;21152;-62
2021/03/18 11:44:35;;;;;;;8.17;6.40;;;;;;;5.15;65.92;95245.54;1792826;80;21531;-62
2021/03/18 11:47:09;;;;;;;10.90;7.43;;;;;;;5.35;65.46;95245.47;1755413;82;21167;-62
2021/03/18 11:49:41;;;;;;;9.83;7.40;;;;;;;5.34;65.82;95241.98;1738956;82;21152;-62
2021/03/18 11:52:10;;;;;;;8.03;6.63;;;;;;;5.40;66.63;95247.63;1755462;82;21141;-62
2021/03/18 11:54:39;;;;;;;9.03;6.40;;;;;;;5.45;65.78;95245.86;1725132;83;21134;-62